X  Schliessen METAR Luftfahrt Wetterdaten     EDHL Lübeck Blankensee Airport
Temperatur
19°C Temperatur
13°C Taupunkt
68% Feuchtigkeit



Wind
13 km/h
8 mph
4 m/s
7 KTS



70°
ONO
Aktuelle Wetterlage

Teilweise bewölkt Teilweise bewölkt
Luftdruck 1005.76 (hPa) - 29.7 (inHg)
Sichtweite 6 (Meile) - 9.7 (Km)
Flughafen
Flughafen Code EDHL

Position : Lübeck Blankensee Airport
Entfernung: 78 (Km)

Metar:
EDHL 301450Z 07007KT 020V110 9999 FEW030 19/13 Q1006

Zeit: 30-05-2024 14:50 CEST